Station History

Weather Underground - logo

Station Historical Data
Daily Summary for January 3, 2018 Units:  Both    English   Metric
« Previous Day
Next Day »
Daily Weekly Monthly Yearly Custom
  High: Low: Average:
Temperature: 66.5 °F /  19.2 °C 38.8 °F /  3.8 °C 52.2 °F /  11.2 °C
Dew Point: 48.7 °F /  9.3 °C 36.9 °F /  2.7 °C 43.9 °F /  6.6 °C
Humidity: 95 % 47 % 76 %
Wind Speed: 4.0 mph /  6.4 km/h - 0.4 mph /  0.6 km/h
Wind Gust: 4.0 mph /  6.4 km/h - -
Wind:- - WSW
Pressure: 30.15 in /  1020.9 hPa 30.01 in /  1016.1 hPa -
Precipitation: 0.00 in /  0 mm    
Historical Graphs
 
 
Tabular Data for January 3, 2018
Time Temperature Dew Point Pressure Wind Wind Speed Wind Gust Humidity Rainfall Rate (Hourly)
00:05 45.8 °F /  7.7 °C 43.0 °F /  6.1 °C 30.15 in /  1020.9 hPa Calm     90 % 0.00 in /  0 mm
00:10 46.1 °F /  7.8 °C 43.3 °F /  6.3 °C 30.14 in /  1020.5 hPa Calm     90 % 0.00 in /  0 mm
00:12 46.3 °F /  7.9 °C 43.2 °F /  6.2 °C 30.14 in /  1020.5 hPa Calm     89 % 0.00 in /  0 mm
00:14 46.3 °F /  7.9 °C 43.2 °F /  6.2 °C 30.14 in /  1020.5 hPa Calm     89 % 0.00 in /  0 mm
00:19 46.1 °F /  7.8 °C 42.7 °F /  5.9 °C 30.14 in /  1020.5 hPa Calm     88 % 0.00 in /  0 mm
00:21 45.9 °F /  7.7 °C 42.5 °F /  5.8 °C 30.14 in /  1020.5 hPa Calm     88 % 0.00 in /  0 mm
00:23 45.8 °F /  7.7 °C 42.4 °F /  5.8 °C 30.14 in /  1020.5 hPa Calm     88 % 0.00 in /  0 mm
00:28 45.3 °F /  7.4 °C 42.0 °F /  5.6 °C 30.13 in /  1020.2 hPa Calm     88 % 0.00 in /  0 mm
00:29 45.2 °F /  7.3 °C 41.9 °F /  5.5 °C 30.13 in /  1020.2 hPa Calm     88 % 0.00 in /  0 mm
00:33 44.9 °F /  7.2 °C 41.6 °F /  5.3 °C 30.13 in /  1020.2 hPa Calm     88 % 0.00 in /  0 mm
00:38 44.3 °F /  6.8 °C 41.0 °F /  5 °C 30.13 in /  1020.2 hPa Calm     88 % 0.00 in /  0 mm
00:46 43.5 °F /  6.4 °C 40.5 °F /  4.7 °C 30.12 in /  1019.9 hPa Calm     89 % 0.00 in /  0 mm
00:51 43.0 °F /  6.1 °C 40.0 °F /  4.4 °C 30.12 in /  1019.9 hPa SSE 1.2 mph /  1.9 km/h 1.2 mph /  1.9 km/h 89 % 0.00 in /  0 mm
00:53 42.7 °F /  5.9 °C 39.7 °F /  4.3 °C 30.12 in /  1019.9 hPa Calm     89 % 0.00 in /  0 mm
00:57 42.5 °F /  5.8 °C 39.8 °F /  4.3 °C 30.12 in /  1019.9 hPa Calm     90 % 0.00 in /  0 mm
00:59 42.4 °F /  5.8 °C 39.7 °F /  4.3 °C 30.12 in /  1019.9 hPa Calm     90 % 0.00 in /  0 mm
01:02 42.2 °F /  5.7 °C 39.8 °F /  4.3 °C 30.12 in /  1019.9 hPa Calm     91 % 0.00 in /  0 mm
01:04 42.2 °F /  5.7 °C 39.8 °F /  4.3 °C 30.12 in /  1019.9 hPa Calm     91 % 0.00 in /  0 mm
01:09 41.8 °F /  5.4 °C 39.4 °F /  4.1 °C 30.12 in /  1019.9 hPa Calm     91 % 0.00 in /  0 mm
01:14 41.6 °F /  5.3 °C 39.2 °F /  4 °C 30.13 in /  1020.2 hPa Calm     91 % 0.00 in /  0 mm
01:15 41.5 °F /  5.3 °C 39.1 °F /  3.9 °C 30.13 in /  1020.2 hPa Calm     91 % 0.00 in /  0 mm
01:20 41.2 °F /  5.1 °C 38.8 °F /  3.8 °C 30.13 in /  1020.2 hPa Calm     91 % 0.00 in /  0 mm
01:22 41.2 °F /  5.1 °C 38.8 °F /  3.8 °C 30.13 in /  1020.2 hPa Calm     91 % 0.00 in /  0 mm
01:26 41.2 °F /  5.1 °C 39.1 °F /  3.9 °C 30.13 in /  1020.2 hPa Calm     92 % 0.00 in /  0 mm
01:31 41.1 °F /  5.1 °C 39.0 °F /  3.9 °C 30.14 in /  1020.5 hPa Calm     92 % 0.00 in /  0 mm
01:36 40.9 °F /  4.9 °C 38.8 °F /  3.8 °C 30.14 in /  1020.5 hPa Calm     92 % 0.00 in /  0 mm
01:40 40.7 °F /  4.8 °C 38.6 °F /  3.7 °C 30.14 in /  1020.5 hPa Calm     92 % 0.00 in /  0 mm
01:41 40.6 °F /  4.8 °C 38.5 °F /  3.6 °C 30.14 in /  1020.5 hPa Calm     92 % 0.00 in /  0 mm
01:46 40.4 °F /  4.7 °C 38.3 °F /  3.5 °C 30.14 in /  1020.5 hPa Calm     92 % 0.00 in /  0 mm
01:48 40.3 °F /  4.6 °C 38.2 °F /  3.4 °C 30.14 in /  1020.5 hPa Calm     92 % 0.00 in /  0 mm
01:50 40.3 °F /  4.6 °C 38.2 °F /  3.4 °C 30.14 in /  1020.5 hPa Calm   0.2 mph /  0.3 km/h 92 % 0.00 in /  0 mm
01:55 40.2 °F /  4.6 °C 38.3 °F /  3.5 °C 30.14 in /  1020.5 hPa Calm     93 % 0.00 in /  0 mm
01:57 40.1 °F /  4.5 °C 38.2 °F /  3.4 °C 30.14 in /  1020.5 hPa Calm     93 % 0.00 in /  0 mm
01:59 40.1 °F /  4.5 °C 38.2 °F /  3.4 °C 30.14 in /  1020.5 hPa Calm     93 % 0.00 in /  0 mm
02:03 40.0 °F /  4.4 °C 38.1 °F /  3.4 °C 30.14 in /  1020.5 hPa Calm     93 % 0.00 in /  0 mm
02:08 39.9 °F /  4.4 °C 38.0 °F /  3.3 °C 30.14 in /  1020.5 hPa Calm     93 % 0.00 in /  0 mm
02:09 39.9 °F /  4.4 °C 38.0 °F /  3.3 °C 30.14 in /  1020.5 hPa Calm     93 % 0.00 in /  0 mm
02:14 39.9 °F /  4.4 °C 38.0 °F /  3.3 °C 30.14 in /  1020.5 hPa Calm     93 % 0.00 in /  0 mm
02:17 40.0 °F /  4.4 °C 38.1 °F /  3.4 °C 30.14 in /  1020.5 hPa Calm     93 % 0.00 in /  0 mm
02:21 40.0 °F /  4.4 °C 38.1 °F /  3.4 °C 30.14 in /  1020.5 hPa Calm     93 % 0.00 in /  0 mm
02:25 40.0 °F /  4.4 °C 38.1 °F /  3.4 °C 30.14 in /  1020.5 hPa Calm     93 % 0.00 in /  0 mm
02:30 40.2 °F /  4.6 °C 38.3 °F /  3.5 °C 30.14 in /  1020.5 hPa Calm     93 % 0.00 in /  0 mm
02:32 40.3 °F /  4.6 °C 38.7 °F /  3.7 °C 30.14 in /  1020.5 hPa Calm     94 % 0.00 in /  0 mm
02:33 40.3 °F /  4.6 °C 38.7 °F /  3.7 °C 30.14 in /  1020.5 hPa Calm     94 % 0.00 in /  0 mm
02:38 40.5 °F /  4.7 °C 38.9 °F /  3.8 °C 30.14 in /  1020.5 hPa Calm     94 % 0.00 in /  0 mm
02:43 40.8 °F /  4.9 °C 39.2 °F /  4 °C 30.14 in /  1020.5 hPa Calm     94 % 0.00 in /  0 mm
02:48 41.0 °F /  5 °C 39.4 °F /  4.1 °C 30.14 in /  1020.5 hPa Calm     94 % 0.00 in /  0 mm
02:49 41.0 °F /  5 °C 39.4 °F /  4.1 °C 30.14 in /  1020.5 hPa Calm     94 % 0.00 in /  0 mm
02:54 41.1 °F /  5.1 °C 39.2 °F /  4 °C 30.14 in /  1020.5 hPa Calm     93 % 0.00 in /  0 mm
02:55 41.1 °F /  5.1 °C 39.2 °F /  4 °C 30.14 in /  1020.5 hPa Calm     93 % 0.00 in /  0 mm
02:56 41.2 °F /  5.1 °C 39.3 °F /  4.1 °C 30.14 in /  1020.5 hPa Calm     93 % 0.00 in /  0 mm
03:03 41.6 °F /  5.3 °C 39.7 °F /  4.3 °C 30.14 in /  1020.5 hPa Calm     93 % 0.00 in /  0 mm
03:14 41.9 °F /  5.5 °C 40.0 °F /  4.4 °C 30.14 in /  1020.5 hPa Calm     93 % 0.00 in /  0 mm
03:19 41.8 °F /  5.4 °C 39.6 °F /  4.2 °C 30.14 in /  1020.5 hPa Calm     92 % 0.00 in /  0 mm
03:22 41.7 °F /  5.4 °C 39.5 °F /  4.2 °C 30.14 in /  1020.5 hPa Calm     92 % 0.00 in /  0 mm
03:27 41.3 °F /  5.2 °C 39.2 °F /  4 °C 30.14 in /  1020.5 hPa Calm     92 % 0.00 in /  0 mm
03:32 41.2 °F /  5.1 °C 39.1 °F /  3.9 °C 30.14 in /  1020.5 hPa Calm     92 % 0.00 in /  0 mm
03:33 41.2 °F /  5.1 °C 39.1 °F /  3.9 °C 30.14 in /  1020.5 hPa Calm     92 % 0.00 in /  0 mm
03:39 41.3 °F /  5.2 °C 39.4 °F /  4.1 °C 30.14 in /  1020.5 hPa Calm     93 % 0.00 in /  0 mm
03:44 41.2 °F /  5.1 °C 39.1 °F /  3.9 °C 30.13 in /  1020.2 hPa Calm     92 % 0.00 in /  0 mm
03:48 40.8 °F /  4.9 °C 38.7 °F /  3.7 °C 30.13 in /  1020.2 hPa Calm     92 % 0.00 in /  0 mm
03:53 40.7 °F /  4.8 °C 38.6 °F /  3.7 °C 30.13 in /  1020.2 hPa Calm     92 % 0.00 in /  0 mm
03:54 40.7 °F /  4.8 °C 38.8 °F /  3.8 °C 30.13 in /  1020.2 hPa Calm     93 % 0.00 in /  0 mm
03:59 40.9 °F /  4.9 °C 39.0 °F /  3.9 °C 30.13 in /  1020.2 hPa Calm     93 % 0.00 in /  0 mm
04:06 40.8 °F /  4.9 °C 38.9 °F /  3.8 °C 30.12 in /  1019.9 hPa Calm     93 % 0.00 in /  0 mm
04:10 40.8 °F /  4.9 °C 38.9 °F /  3.8 °C 30.12 in /  1019.9 hPa Calm     93 % 0.00 in /  0 mm
04:11 40.8 °F /  4.9 °C 38.9 °F /  3.8 °C 30.12 in /  1019.9 hPa Calm     93 % 0.00 in /  0 mm
04:16 40.8 °F /  4.9 °C 38.9 °F /  3.8 °C 30.12 in /  1019.9 hPa Calm     93 % 0.00 in /  0 mm
04:18 40.7 °F /  4.8 °C 38.8 °F /  3.8 °C 30.12 in /  1019.9 hPa Calm     93 % 0.00 in /  0 mm
04:23 40.6 °F /  4.8 °C 38.7 °F /  3.7 °C 30.11 in /  1019.5 hPa Calm     93 % 0.00 in /  0 mm
04:28 40.4 °F /  4.7 °C 38.5 °F /  3.6 °C 30.11 in /  1019.5 hPa Calm     93 % 0.00 in /  0 mm
04:29 40.4 °F /  4.7 °C 38.5 °F /  3.6 °C 30.11 in /  1019.5 hPa Calm     93 % 0.00 in /  0 mm
04:34 40.3 °F /  4.6 °C 38.4 °F /  3.6 °C 30.11 in /  1019.5 hPa Calm     93 % 0.00 in /  0 mm
04:37 40.1 °F /  4.5 °C 38.2 °F /  3.4 °C 30.11 in /  1019.5 hPa Calm     93 % 0.00 in /  0 mm
04:42 39.9 °F /  4.4 °C 38.0 °F /  3.3 °C 30.10 in /  1019.2 hPa Calm     93 % 0.00 in /  0 mm
04:44 39.9 °F /  4.4 °C 38.0 °F /  3.3 °C 30.10 in /  1019.2 hPa Calm     93 % 0.00 in /  0 mm
04:49 39.9 °F /  4.4 °C 38.0 °F /  3.3 °C 30.10 in /  1019.2 hPa Calm     93 % 0.00 in /  0 mm
04:57 39.9 °F /  4.4 °C 38.0 °F /  3.3 °C 30.10 in /  1019.2 hPa Calm     93 % 0.00 in /  0 mm
05:02 39.6 °F /  4.2 °C 37.7 °F /  3.2 °C 30.10 in /  1019.2 hPa Calm     93 % 0.00 in /  0 mm
05:04 39.3 °F /  4.1 °C 37.2 °F /  2.9 °C 30.09 in /  1018.8 hPa Calm     92 % 0.00 in /  0 mm
05:12 38.9 °F /  3.8 °C 37.0 °F /  2.8 °C 30.09 in /  1018.8 hPa Calm     93 % 0.00 in /  0 mm
05:15 38.9 °F /  3.8 °C 37.0 °F /  2.8 °C 30.09 in /  1018.8 hPa Calm     93 % 0.00 in /  0 mm
05:19 38.9 °F /  3.8 °C 37.0 °F /  2.8 °C 30.09 in /  1018.8 hPa Calm     93 % 0.00 in /  0 mm
05:25 38.9 °F /  3.8 °C 37.0 °F /  2.8 °C 30.09 in /  1018.8 hPa Calm     93 % 0.00 in /  0 mm
05:30 38.9 °F /  3.8 °C 37.3 °F /  2.9 °C 30.09 in /  1018.8 hPa Calm     94 % 0.00 in /  0 mm
05:31 38.9 °F /  3.8 °C 37.3 °F /  2.9 °C 30.09 in /  1018.8 hPa Calm     94 % 0.00 in /  0 mm
05:37 38.9 °F /  3.8 °C 37.3 °F /  2.9 °C 30.09 in /  1018.8 hPa Calm     94 % 0.00 in /  0 mm
05:42 38.8 °F /  3.8 °C 36.9 °F /  2.7 °C 30.09 in /  1018.8 hPa Calm     93 % 0.00 in /  0 mm
05:47 38.8 °F /  3.8 °C 37.2 °F /  2.9 °C 30.08 in /  1018.5 hPa Calm     94 % 0.00 in /  0 mm
05:50 38.9 °F /  3.8 °C 37.3 °F /  2.9 °C 30.09 in /  1018.8 hPa Calm     94 % 0.00 in /  0 mm
05:55 39.0 °F /  3.9 °C 37.4 °F /  3 °C 30.09 in /  1018.8 hPa Calm     94 % 0.00 in /  0 mm
06:00 38.9 °F /  3.8 °C 37.3 °F /  2.9 °C 30.09 in /  1018.8 hPa Calm     94 % 0.00 in /  0 mm
06:02 38.9 °F /  3.8 °C 37.3 °F /  2.9 °C 30.09 in /  1018.8 hPa Calm     94 % 0.00 in /  0 mm
06:06 38.9 °F /  3.8 °C 37.3 °F /  2.9 °C 30.09 in /  1018.8 hPa Calm     94 % 0.00 in /  0 mm
06:08 38.9 °F /  3.8 °C 37.3 °F /  2.9 °C 30.09 in /  1018.8 hPa Calm     94 % 0.00 in /  0 mm
06:13 39.0 °F /  3.9 °C 37.4 °F /  3 °C 30.10 in /  1019.2 hPa Calm     94 % 0.00 in /  0 mm
06:15 39.1 °F /  3.9 °C 37.5 °F /  3.1 °C 30.10 in /  1019.2 hPa Calm     94 % 0.00 in /  0 mm
06:19 39.3 °F /  4.1 °C 37.7 °F /  3.2 °C 30.10 in /  1019.2 hPa Calm     94 % 0.00 in /  0 mm
06:24 39.7 °F /  4.3 °C 38.1 °F /  3.4 °C 30.10 in /  1019.2 hPa Calm     94 % 0.00 in /  0 mm
06:25 39.8 °F /  4.3 °C 38.2 °F /  3.4 °C 30.10 in /  1019.2 hPa Calm     94 % 0.00 in /  0 mm
06:30 40.0 °F /  4.4 °C 38.4 °F /  3.6 °C 30.10 in /  1019.2 hPa Calm     94 % 0.00 in /  0 mm
06:34 40.2 °F /  4.6 °C 38.9 °F /  3.8 °C 30.10 in /  1019.2 hPa Calm     95 % 0.00 in /  0 mm
06:39 40.5 °F /  4.7 °C 39.2 °F /  4 °C 30.10 in /  1019.2 hPa Calm     95 % 0.00 in /  0 mm
06:40 40.5 °F /  4.7 °C 39.2 °F /  4 °C 30.10 in /  1019.2 hPa Calm     95 % 0.00 in /  0 mm
06:45 40.8 °F /  4.9 °C 39.5 °F /  4.2 °C 30.10 in /  1019.2 hPa Calm     95 % 0.00 in /  0 mm
06:49 41.0 °F /  5 °C 39.7 °F /  4.3 °C 30.10 in /  1019.2 hPa Calm     95 % 0.00 in /  0 mm
06:54 40.9 °F /  4.9 °C 39.3 °F /  4.1 °C 30.11 in /  1019.5 hPa Calm     94 % 0.00 in /  0 mm
06:55 41.0 °F /  5 °C 39.4 °F /  4.1 °C 30.11 in /  1019.5 hPa Calm     94 % 0.00 in /  0 mm
07:00 40.9 °F /  4.9 °C 39.3 °F /  4.1 °C 30.11 in /  1019.5 hPa Calm     94 % 0.00 in /  0 mm
07:05 41.0 °F /  5 °C 39.4 °F /  4.1 °C 30.10 in /  1019.2 hPa Calm     94 % 0.00 in /  0 mm
07:07 41.1 °F /  5.1 °C 39.5 °F /  4.2 °C 30.10 in /  1019.2 hPa Calm     94 % 0.00 in /  0 mm
07:08 41.1 °F /  5.1 °C 39.5 °F /  4.2 °C 30.10 in /  1019.2 hPa Calm     94 % 0.00 in /  0 mm
07:13 41.4 °F /  5.2 °C 39.8 °F /  4.3 °C 30.10 in /  1019.2 hPa Calm     94 % 0.00 in /  0 mm
07:16 41.6 °F /  5.3 °C 40.0 °F /  4.4 °C 30.10 in /  1019.2 hPa Calm     94 % 0.00 in /  0 mm
07:18 41.8 °F /  5.4 °C 40.2 °F /  4.6 °C 30.11 in /  1019.5 hPa Calm     94 % 0.00 in /  0 mm
07:23 41.9 °F /  5.5 °C 40.3 °F /  4.6 °C 30.10 in /  1019.2 hPa Calm     94 % 0.00 in /  0 mm
07:28 41.9 °F /  5.5 °C 40.3 °F /  4.6 °C 30.11 in /  1019.5 hPa Calm     94 % 0.00 in /  0 mm
07:34 41.9 °F /  5.5 °C 40.0 °F /  4.4 °C 30.11 in /  1019.5 hPa Calm     93 % 0.00 in /  0 mm
07:40 42.0 °F /  5.6 °C 40.1 °F /  4.5 °C 30.11 in /  1019.5 hPa Calm     93 % 0.00 in /  0 mm
07:41 42.1 °F /  5.6 °C 40.2 °F /  4.6 °C 30.11 in /  1019.5 hPa Calm     93 % 0.00 in /  0 mm
07:42 42.1 °F /  5.6 °C 40.2 °F /  4.6 °C 30.11 in /  1019.5 hPa Calm     93 % 0.00 in /  0 mm
07:47 42.3 °F /  5.7 °C 40.7 °F /  4.8 °C 30.11 in /  1019.5 hPa Calm     94 % 0.00 in /  0 mm
07:50 42.5 °F /  5.8 °C 40.9 °F /  4.9 °C 30.10 in /  1019.2 hPa Calm     94 % 0.00 in /  0 mm
07:53 42.7 °F /  5.9 °C 41.1 °F /  5.1 °C 30.11 in /  1019.5 hPa Calm     94 % 0.00 in /  0 mm
07:56 42.8 °F /  6 °C 41.2 °F /  5.1 °C 30.11 in /  1019.5 hPa Calm     94 % 0.00 in /  0 mm
08:01 43.1 °F /  6.2 °C 41.2 °F /  5.1 °C 30.12 in /  1019.9 hPa Calm     93 % 0.00 in /  0 mm
08:04 43.1 °F /  6.2 °C 41.2 °F /  5.1 °C 30.11 in /  1019.5 hPa Calm     93 % 0.00 in /  0 mm
08:10 43.3 °F /  6.3 °C 41.4 °F /  5.2 °C 30.11 in /  1019.5 hPa Calm     93 % 0.00 in /  0 mm
08:13 43.4 °F /  6.3 °C 41.5 °F /  5.3 °C 30.11 in /  1019.5 hPa Calm     93 % 0.00 in /  0 mm
08:15 43.6 °F /  6.4 °C 41.7 °F /  5.4 °C 30.11 in /  1019.5 hPa Calm     93 % 0.00 in /  0 mm
08:21 44.6 °F /  7 °C 42.7 °F /  5.9 °C 30.11 in /  1019.5 hPa Calm     93 % 0.00 in /  0 mm
08:26 45.3 °F /  7.4 °C 43.1 °F /  6.2 °C 30.11 in /  1019.5 hPa Calm     92 % 0.00 in /  0 mm
08:27 45.5 °F /  7.5 °C 43.0 °F /  6.1 °C 30.11 in /  1019.5 hPa WNW 1.2 mph /  1.9 km/h 1.2 mph /  1.9 km/h 91 % 0.00 in /  0 mm
08:33 46.4 °F /  8 °C 43.6 °F /  6.4 °C 30.11 in /  1019.5 hPa Calm     90 % 0.00 in /  0 mm
08:34 46.5 °F /  8.1 °C 43.7 °F /  6.5 °C 30.11 in /  1019.5 hPa Calm     90 % 0.00 in /  0 mm
08:39 47.1 °F /  8.4 °C 43.7 °F /  6.5 °C 30.11 in /  1019.5 hPa Calm     88 % 0.00 in /  0 mm
08:42 47.5 °F /  8.6 °C 44.1 °F /  6.7 °C 30.11 in /  1019.5 hPa Calm     88 % 0.00 in /  0 mm
08:47 48.4 °F /  9.1 °C 44.4 °F /  6.9 °C 30.12 in /  1019.9 hPa Calm     86 % 0.00 in /  0 mm
08:48 48.5 °F /  9.2 °C 44.5 °F /  6.9 °C 30.11 in /  1019.5 hPa WNW 1.0 mph /  1.6 km/h   86 % 0.00 in /  0 mm
08:53 49.0 °F /  9.4 °C 44.7 °F /  7.1 °C 30.11 in /  1019.5 hPa Calm     85 % 0.00 in /  0 mm
08:55 49.3 °F /  9.6 °C 44.7 °F /  7.1 °C 30.11 in /  1019.5 hPa ESE 1.2 mph /  1.9 km/h 1.2 mph /  1.9 km/h 84 % 0.00 in /  0 mm
09:01 50.0 °F /  10 °C 45.0 °F /  7.2 °C 30.11 in /  1019.5 hPa SE 1.2 mph /  1.9 km/h   83 % 0.00 in /  0 mm
09:08 50.8 °F /  10.4 °C 45.2 °F /  7.3 °C 30.10 in /  1019.2 hPa SE 1.2 mph /  1.9 km/h 1.2 mph /  1.9 km/h 81 % 0.00 in /  0 mm
09:13 51.4 °F /  10.8 °C 45.4 °F /  7.4 °C 30.10 in /  1019.2 hPa West 1.2 mph /  1.9 km/h   80 % 0.00 in /  0 mm
09:14 51.4 °F /  10.8 °C 45.4 °F /  7.4 °C 30.10 in /  1019.2 hPa Calm     80 % 0.00 in /  0 mm
09:19 51.6 °F /  10.9 °C 45.0 °F /  7.2 °C 30.10 in /  1019.2 hPa ESE 1.2 mph /  1.9 km/h   78 % 0.00 in /  0 mm
09:20 51.7 °F /  10.9 °C 45.1 °F /  7.3 °C 30.10 in /  1019.2 hPa Calm     78 % 0.00 in /  0 mm
09:25 52.4 °F /  11.3 °C 45.1 °F /  7.3 °C 30.10 in /  1019.2 hPa NNW 2.0 mph /  3.2 km/h 2.0 mph /  3.2 km/h 76 % 0.00 in /  0 mm
09:30 52.6 °F /  11.4 °C 44.9 °F /  7.2 °C 30.09 in /  1018.8 hPa NW 1.2 mph /  1.9 km/h 1.2 mph /  1.9 km/h 75 % 0.00 in /  0 mm
09:31 52.7 °F /  11.5 °C 44.6 °F /  7 °C 30.10 in /  1019.2 hPa WNW 1.2 mph /  1.9 km/h 1.2 mph /  1.9 km/h 74 % 0.00 in /  0 mm
09:36 53.0 °F /  11.7 °C 44.9 °F /  7.2 °C 30.10 in /  1019.2 hPa Calm     74 % 0.00 in /  0 mm
09:41 53.7 °F /  12.1 °C 44.9 °F /  7.2 °C 30.10 in /  1019.2 hPa NW 1.2 mph /  1.9 km/h   72 % 0.00 in /  0 mm
09:43 53.9 °F /  12.2 °C 44.7 °F /  7.1 °C 30.10 in /  1019.2 hPa Calm     71 % 0.00 in /  0 mm
09:47 54.5 °F /  12.5 °C 45.3 °F /  7.4 °C 30.09 in /  1018.8 hPa NNW 2.3 mph /  3.7 km/h 2.3 mph /  3.7 km/h 71 % 0.00 in /  0 mm
09:49 54.7 °F /  12.6 °C 45.5 °F /  7.5 °C 30.09 in /  1018.8 hPa NW 2.3 mph /  3.7 km/h 2.3 mph /  3.7 km/h 71 % 0.00 in /  0 mm
09:50 55.0 °F /  12.8 °C 45.8 °F /  7.7 °C 30.09 in /  1018.8 hPa Calm     71 % 0.00 in /  0 mm
09:57 56.1 °F /  13.4 °C 45.7 °F /  7.6 °C 30.09 in /  1018.8 hPa WNW 1.0 mph /  1.6 km/h   68 % 0.00 in /  0 mm
10:02 56.7 °F /  13.7 °C 45.9 °F /  7.7 °C 30.08 in /  1018.5 hPa Calm     67 % 0.00 in /  0 mm
10:08 57.9 °F /  14.4 °C 45.8 °F /  7.7 °C 30.08 in /  1018.5 hPa NNW 1.2 mph /  1.9 km/h 1.2 mph /  1.9 km/h 64 % 0.00 in /  0 mm
10:09 57.9 °F /  14.4 °C 45.4 °F /  7.4 °C 30.08 in /  1018.5 hPa NW 2.0 mph /  3.2 km/h 2.0 mph /  3.2 km/h 63 % 0.00 in /  0 mm
10:14 58.2 °F /  14.6 °C 44.8 °F /  7.1 °C 30.08 in /  1018.5 hPa NNW 2.0 mph /  3.2 km/h 2.0 mph /  3.2 km/h 61 % 0.00 in /  0 mm
10:16 58.3 °F /  14.6 °C 44.9 °F /  7.2 °C 30.08 in /  1018.5 hPa NNW 1.2 mph /  1.9 km/h 1.2 mph /  1.9 km/h 61 % 0.00 in /  0 mm
10:19 58.4 °F /  14.7 °C 45.0 °F /  7.2 °C 30.08 in /  1018.5 hPa Calm     61 % 0.00 in /  0 mm
10:24 58.8 °F /  14.9 °C 44.9 °F /  7.2 °C 30.08 in /  1018.5 hPa Calm     60 % 0.00 in /  0 mm
10:26 58.9 °F /  14.9 °C 45.5 °F /  7.5 °C 30.08 in /  1018.5 hPa Calm     61 % 0.00 in /  0 mm
10:31 59.3 °F /  15.2 °C 45.4 °F /  7.4 °C 30.08 in /  1018.5 hPa Calm     60 % 0.00 in /  0 mm
10:32 59.4 °F /  15.2 °C 45.5 °F /  7.5 °C 30.08 in /  1018.5 hPa Calm     60 % 0.00 in /  0 mm
10:37 59.8 °F /  15.4 °C 46.3 °F /  7.9 °C 30.08 in /  1018.5 hPa NW 1.2 mph /  1.9 km/h 1.2 mph /  1.9 km/h 61 % 0.00 in /  0 mm
10:39 59.9 °F /  15.5 °C 46.4 °F /  8 °C 30.07 in /  1018.2 hPa Calm     61 % 0.00 in /  0 mm
10:44 60.3 °F /  15.7 °C 46.4 °F /  8 °C 30.07 in /  1018.2 hPa Calm     60 % 0.00 in /  0 mm
10:45 60.4 °F /  15.8 °C 46.0 °F /  7.8 °C 30.07 in /  1018.2 hPa Calm     59 % 0.00 in /  0 mm
10:52 61.1 °F /  16.2 °C 47.1 °F /  8.4 °C 30.07 in /  1018.2 hPa WNW 1.2 mph /  1.9 km/h 1.2 mph /  1.9 km/h 60 % 0.00 in /  0 mm
10:57 61.1 °F /  16.2 °C 46.7 °F /  8.2 °C 30.07 in /  1018.2 hPa Calm   0.3 mph /  0.5 km/h 59 % 0.00 in /  0 mm
10:59 61.1 °F /  16.2 °C 46.2 °F /  7.9 °C 30.07 in /  1018.2 hPa NW 1.2 mph /  1.9 km/h 1.2 mph /  1.9 km/h 58 % 0.00 in /  0 mm
11:04 61.2 °F /  16.2 °C 45.8 °F /  7.7 °C 30.07 in /  1018.2 hPa NW 2.0 mph /  3.2 km/h 2.0 mph /  3.2 km/h 57 % 0.00 in /  0 mm
11:05 61.2 °F /  16.2 °C 45.8 °F /  7.7 °C 30.07 in /  1018.2 hPa NW 2.3 mph /  3.7 km/h 2.3 mph /  3.7 km/h 57 % 0.00 in /  0 mm
11:06 61.3 °F /  16.3 °C 45.9 °F /  7.7 °C 30.07 in /  1018.2 hPa North 1.2 mph /  1.9 km/h 1.2 mph /  1.9 km/h 57 % 0.00 in /  0 mm
11:17 61.8 °F /  16.6 °C 45.5 °F /  7.5 °C 30.07 in /  1018.2 hPa NW 3.5 mph /  5.6 km/h 3.5 mph /  5.6 km/h 55 % 0.00 in /  0 mm
11:19 61.8 °F /  16.6 °C 45.5 °F /  7.5 °C 30.07 in /  1018.2 hPa NW 1.2 mph /  1.9 km/h 1.2 mph /  1.9 km/h 55 % 0.00 in /  0 mm
11:24 62.1 °F /  16.7 °C 45.2 °F /  7.3 °C 30.06 in /  1017.8 hPa WNW 1.2 mph /  1.9 km/h 1.2 mph /  1.9 km/h 54 % 0.00 in /  0 mm
11:26 62.2 °F /  16.8 °C 44.9 °F /  7.2 °C 30.06 in /  1017.8 hPa WNW 1.2 mph /  1.9 km/h 1.2 mph /  1.9 km/h 53 % 0.00 in /  0 mm
11:34 62.4 °F /  16.9 °C 45.0 °F /  7.2 °C 30.06 in /  1017.8 hPa Calm     53 % 0.00 in /  0 mm
11:39 62.9 °F /  17.2 °C 46.0 °F /  7.8 °C 30.06 in /  1017.8 hPa Calm     54 % 0.00 in /  0 mm
11:44 63.2 °F /  17.3 °C 45.3 °F /  7.4 °C 30.06 in /  1017.8 hPa Calm     52 % 0.00 in /  0 mm
11:49 63.4 °F /  17.4 °C 44.4 °F /  6.9 °C 30.05 in /  1017.5 hPa WNW 1.2 mph /  1.9 km/h   50 % 0.00 in /  0 mm
11:51 63.5 °F /  17.5 °C 45.0 °F /  7.2 °C 30.05 in /  1017.5 hPa WSW 1.2 mph /  1.9 km/h 1.2 mph /  1.9 km/h 51 % 0.00 in /  0 mm
11:56 64.1 °F /  17.8 °C 45.1 °F /  7.3 °C 30.06 in /  1017.8 hPa NW 1.2 mph /  1.9 km/h 1.2 mph /  1.9 km/h 50 % 0.00 in /  0 mm
12:01 64.6 °F /  18.1 °C 45.5 °F /  7.5 °C 30.05 in /  1017.5 hPa Calm     50 % 0.00 in /  0 mm
12:03 64.8 °F /  18.2 °C 45.2 °F /  7.3 °C 30.05 in /  1017.5 hPa Calm     49 % 0.00 in /  0 mm
12:08 65.5 °F /  18.6 °C 46.9 °F /  8.3 °C 30.05 in /  1017.5 hPa Calm     51 % 0.00 in /  0 mm
12:10 65.7 °F /  18.7 °C 47.1 °F /  8.4 °C 30.05 in /  1017.5 hPa Calm     51 % 0.00 in /  0 mm
12:16 66.1 °F /  18.9 °C 45.8 °F /  7.7 °C 30.05 in /  1017.5 hPa Calm     48 % 0.00 in /  0 mm
12:20 66.1 °F /  18.9 °C 45.3 °F /  7.4 °C 30.05 in /  1017.5 hPa Calm     47 % 0.00 in /  0 mm
12:25 66.0 °F /  18.9 °C 45.7 °F /  7.6 °C 30.04 in /  1017.2 hPa Calm     48 % 0.00 in /  0 mm
12:27 66.0 °F /  18.9 °C 45.2 °F /  7.3 °C 30.04 in /  1017.2 hPa Calm     47 % 0.00 in /  0 mm
12:32 66.0 °F /  18.9 °C 45.2 °F /  7.3 °C 30.04 in /  1017.2 hPa Calm     47 % 0.00 in /  0 mm
12:33 66.1 °F /  18.9 °C 45.3 °F /  7.4 °C 30.04 in /  1017.2 hPa Calm     47 % 0.00 in /  0 mm
12:38 66.0 °F /  18.9 °C 45.2 °F /  7.3 °C 30.04 in /  1017.2 hPa WNW 1.2 mph /  1.9 km/h 1.2 mph /  1.9 km/h 47 % 0.00 in /  0 mm
12:43 65.8 °F /  18.8 °C 45.0 °F /  7.2 °C 30.04 in /  1017.2 hPa Calm     47 % 0.00 in /  0 mm
12:48 65.9 °F /  18.8 °C 45.1 °F /  7.3 °C 30.03 in /  1016.8 hPa Calm     47 % 0.00 in /  0 mm
12:50 65.9 °F /  18.8 °C 45.1 °F /  7.3 °C 30.03 in /  1016.8 hPa Calm     47 % 0.00 in /  0 mm
12:55 65.9 °F /  18.8 °C 45.1 °F /  7.3 °C 30.03 in /  1016.8 hPa NNW 1.2 mph /  1.9 km/h   47 % 0.00 in /  0 mm
12:56 65.9 °F /  18.8 °C 45.1 °F /  7.3 °C 30.03 in /  1016.8 hPa Calm     47 % 0.00 in /  0 mm
13:01 65.9 °F /  18.8 °C 45.6 °F /  7.6 °C 30.03 in /  1016.8 hPa Calm     48 % 0.00 in /  0 mm
13:05 65.9 °F /  18.8 °C 45.6 °F /  7.6 °C 30.03 in /  1016.8 hPa Calm     48 % 0.00 in /  0 mm
13:10 65.8 °F /  18.8 °C 45.6 °F /  7.6 °C 30.02 in /  1016.5 hPa NW 1.2 mph /  1.9 km/h 1.2 mph /  1.9 km/h 48 % 0.00 in /  0 mm
13:16 65.8 °F /  18.8 °C 45.6 °F /  7.6 °C 30.02 in /  1016.5 hPa NW 1.2 mph /  1.9 km/h 1.2 mph /  1.9 km/h 48 % 0.00 in /  0 mm
13:17 65.8 °F /  18.8 °C 45.6 °F /  7.6 °C 30.02 in /  1016.5 hPa WNW 2.0 mph /  3.2 km/h 2.0 mph /  3.2 km/h 48 % 0.00 in /  0 mm
13:23 65.6 °F /  18.7 °C 45.4 °F /  7.4 °C 30.02 in /  1016.5 hPa Calm   0.1 mph /  0.2 km/h 48 % 0.00 in /  0 mm
13:28 65.6 °F /  18.7 °C 45.4 °F /  7.4 °C 30.02 in /  1016.5 hPa NW 1.2 mph /  1.9 km/h   48 % 0.00 in /  0 mm
13:29 65.6 °F /  18.7 °C 45.4 °F /  7.4 °C 30.02 in /  1016.5 hPa Calm     48 % 0.00 in /  0 mm
13:34 65.6 °F /  18.7 °C 45.9 °F /  7.7 °C 30.02 in /  1016.5 hPa Calm     49 % 0.00 in /  0 mm
13:35 65.6 °F /  18.7 °C 45.9 °F /  7.7 °C 30.02 in /  1016.5 hPa Calm     49 % 0.00 in /  0 mm
13:40 65.6 °F /  18.7 °C 45.9 °F /  7.7 °C 30.02 in /  1016.5 hPa WNW 2.3 mph /  3.7 km/h 2.3 mph /  3.7 km/h 49 % 0.00 in /  0 mm
13:45 65.9 °F /  18.8 °C 46.2 °F /  7.9 °C 30.02 in /  1016.5 hPa NW 2.3 mph /  3.7 km/h 2.3 mph /  3.7 km/h 49 % 0.00 in /  0 mm
13:51 66.2 °F /  19 °C 46.5 °F /  8.1 °C 30.02 in /  1016.5 hPa NW 1.2 mph /  1.9 km/h 1.2 mph /  1.9 km/h 49 % 0.00 in /  0 mm
13:54 66.4 °F /  19.1 °C 46.7 °F /  8.2 °C 30.02 in /  1016.5 hPa NW 1.2 mph /  1.9 km/h   49 % 0.00 in /  0 mm
13:57 66.4 °F /  19.1 °C 46.1 °F /  7.8 °C 30.02 in /  1016.5 hPa North 1.2 mph /  1.9 km/h 1.2 mph /  1.9 km/h 48 % 0.00 in /  0 mm
14:03 66.4 °F /  19.1 °C 46.1 °F /  7.8 °C 30.02 in /  1016.5 hPa NW 2.3 mph /  3.7 km/h 2.3 mph /  3.7 km/h 48 % 0.00 in /  0 mm
14:07 66.4 °F /  19.1 °C 46.1 °F /  7.8 °C 30.02 in /  1016.5 hPa WNW 2.3 mph /  3.7 km/h 2.3 mph /  3.7 km/h 48 % 0.00 in /  0 mm
14:08 66.4 °F /  19.1 °C 46.7 °F /  8.2 °C 30.02 in /  1016.5 hPa NW 1.2 mph /  1.9 km/h 1.2 mph /  1.9 km/h 49 % 0.00 in /  0 mm
14:13 66.4 °F /  19.1 °C 46.1 °F /  7.8 °C 30.02 in /  1016.5 hPa WNW 2.3 mph /  3.7 km/h 2.3 mph /  3.7 km/h 48 % 0.00 in /  0 mm
14:16 66.4 °F /  19.1 °C 46.7 °F /  8.2 °C 30.02 in /  1016.5 hPa Calm   0.2 mph /  0.3 km/h 49 % 0.00 in /  0 mm
14:20 66.3 °F /  19.1 °C 46.0 °F /  7.8 °C 30.02 in /  1016.5 hPa NW 1.2 mph /  1.9 km/h 1.2 mph /  1.9 km/h 48 % 0.00 in /  0 mm
14:23 66.3 °F /  19.1 °C 46.0 °F /  7.8 °C 30.02 in /  1016.5 hPa NNW 3.5 mph /  5.6 km/h 3.5 mph /  5.6 km/h 48 % 0.00 in /  0 mm
14:26 66.4 °F /  19.1 °C 46.7 °F /  8.2 °C 30.01 in /  1016.1 hPa NW 1.2 mph /  1.9 km/h 1.2 mph /  1.9 km/h 49 % 0.00 in /  0 mm
14:30 66.4 °F /  19.1 °C 46.7 °F /  8.2 °C 30.01 in /  1016.1 hPa NNW 1.2 mph /  1.9 km/h 1.2 mph /  1.9 km/h 49 % 0.00 in /  0 mm
14:35 66.5 °F /  19.2 °C 47.3 °F /  8.5 °C 30.01 in /  1016.1 hPa NW 1.2 mph /  1.9 km/h 1.2 mph /  1.9 km/h 50 % 0.00 in /  0 mm
14:36 66.4 °F /  19.1 °C 47.2 °F /  8.4 °C 30.01 in /  1016.1 hPa NW 1.2 mph /  1.9 km/h 1.2 mph /  1.9 km/h 50 % 0.00 in /  0 mm
14:39 66.4 °F /  19.1 °C 47.2 °F /  8.4 °C 30.02 in /  1016.5 hPa NW 1.2 mph /  1.9 km/h 1.2 mph /  1.9 km/h 50 % 0.00 in /  0 mm
14:42 66.4 °F /  19.1 °C 47.7 °F /  8.7 °C 30.02 in /  1016.5 hPa Calm     51 % 0.00 in /  0 mm
14:46 66.4 °F /  19.1 °C 47.2 °F /  8.4 °C 30.02 in /  1016.5 hPa NW 1.2 mph /  1.9 km/h 1.2 mph /  1.9 km/h 50 % 0.00 in /  0 mm
14:49 66.4 °F /  19.1 °C 47.2 °F /  8.4 °C 30.02 in /  1016.5 hPa NW 1.2 mph /  1.9 km/h   50 % 0.00 in /  0 mm
14:54 66.4 °F /  19.1 °C 46.7 °F /  8.2 °C 30.02 in /  1016.5 hPa NNW 2.3 mph /  3.7 km/h 2.3 mph /  3.7 km/h 49 % 0.00 in /  0 mm
15:00 66.3 °F /  19.1 °C 46.6 °F /  8.1 °C 30.02 in /  1016.5 hPa NW 1.0 mph /  1.6 km/h 1.0 mph /  1.6 km/h 49 % 0.00 in /  0 mm
15:02 66.3 °F /  19.1 °C 46.6 °F /  8.1 °C 30.02 in /  1016.5 hPa Calm     49 % 0.00 in /  0 mm
15:06 66.3 °F /  19.1 °C 46.6 °F /  8.1 °C 30.03 in /  1016.8 hPa Calm     49 % 0.00 in /  0 mm
15:11 66.3 °F /  19.1 °C 46.6 °F /  8.1 °C 30.02 in /  1016.5 hPa NW 1.2 mph /  1.9 km/h   49 % 0.00 in /  0 mm
15:15 66.2 °F /  19 °C 47.0 °F /  8.3 °C 30.03 in /  1016.8 hPa NW 1.2 mph /  1.9 km/h 1.2 mph /  1.9 km/h 50 % 0.00 in /  0 mm
15:17 66.2 °F /  19 °C 46.5 °F /  8.1 °C 30.03 in /  1016.8 hPa NW 1.2 mph /  1.9 km/h 1.2 mph /  1.9 km/h 49 % 0.00 in /  0 mm
15:22 65.9 °F /  18.8 °C 45.6 °F /  7.6 °C 30.02 in /  1016.5 hPa NW 1.2 mph /  1.9 km/h 1.2 mph /  1.9 km/h 48 % 0.00 in /  0 mm
15:27 65.7 °F /  18.7 °C 45.5 °F /  7.5 °C 30.03 in /  1016.8 hPa WNW 1.2 mph /  1.9 km/h 1.2 mph /  1.9 km/h 48 % 0.00 in /  0 mm
15:29 65.6 °F /  18.7 °C 44.8 °F /  7.1 °C 30.03 in /  1016.8 hPa WNW 1.2 mph /  1.9 km/h 1.2 mph /  1.9 km/h 47 % 0.00 in /  0 mm
15:34 65.3 °F /  18.5 °C 45.6 °F /  7.6 °C 30.03 in /  1016.8 hPa NW 1.2 mph /  1.9 km/h 1.2 mph /  1.9 km/h 49 % 0.00 in /  0 mm
15:39 64.9 °F /  18.3 °C 45.8 °F /  7.7 °C 30.03 in /  1016.8 hPa NW 2.3 mph /  3.7 km/h 2.3 mph /  3.7 km/h 50 % 0.00 in /  0 mm
15:40 64.9 °F /  18.3 °C 45.8 °F /  7.7 °C 30.03 in /  1016.8 hPa NW 2.3 mph /  3.7 km/h 2.3 mph /  3.7 km/h 50 % 0.00 in /  0 mm
15:42 64.8 °F /  18.2 °C 46.2 °F /  7.9 °C 30.03 in /  1016.8 hPa WNW 1.2 mph /  1.9 km/h 1.2 mph /  1.9 km/h 51 % 0.00 in /  0 mm
15:46 64.7 °F /  18.2 °C 46.1 °F /  7.8 °C 30.03 in /  1016.8 hPa NW 1.2 mph /  1.9 km/h 1.2 mph /  1.9 km/h 51 % 0.00 in /  0 mm
15:51 64.5 °F /  18.1 °C 46.5 °F /  8.1 °C 30.03 in /  1016.8 hPa Calm     52 % 0.00 in /  0 mm
15:52 64.4 °F /  18 °C 46.4 °F /  8 °C 30.03 in /  1016.8 hPa Calm     52 % 0.00 in /  0 mm
15:57 64.2 °F /  17.9 °C 46.7 °F /  8.2 °C 30.03 in /  1016.8 hPa Calm     53 % 0.00 in /  0 mm
15:58 64.2 °F /  17.9 °C 46.7 °F /  8.2 °C 30.03 in /  1016.8 hPa Calm     53 % 0.00 in /  0 mm
16:00 64.1 °F /  17.8 °C 46.6 °F /  8.1 °C 30.03 in /  1016.8 hPa Calm     53 % 0.00 in /  0 mm
16:03 63.9 °F /  17.7 °C 46.9 °F /  8.3 °C 30.03 in /  1016.8 hPa Calm     54 % 0.00 in /  0 mm
16:08 63.5 °F /  17.5 °C 47.0 °F /  8.3 °C 30.04 in /  1017.2 hPa Calm     55 % 0.00 in /  0 mm
16:09 63.4 °F /  17.4 °C 46.9 °F /  8.3 °C 30.04 in /  1017.2 hPa Calm     55 % 0.00 in /  0 mm
16:14 63.2 °F /  17.3 °C 47.2 °F /  8.4 °C 30.04 in /  1017.2 hPa Calm     56 % 0.00 in /  0 mm
16:19 63.0 °F /  17.2 °C 47.5 °F /  8.6 °C 30.04 in /  1017.2 hPa Calm     57 % 0.00 in /  0 mm
16:24 62.6 °F /  17 °C 47.6 °F /  8.7 °C 30.05 in /  1017.5 hPa Calm     58 % 0.00 in /  0 mm
16:26 62.5 °F /  16.9 °C 47.5 °F /  8.6 °C 30.05 in /  1017.5 hPa Calm     58 % 0.00 in /  0 mm
16:32 62.1 °F /  16.7 °C 47.6 °F /  8.7 °C 30.05 in /  1017.5 hPa Calm     59 % 0.00 in /  0 mm
16:33 62.0 °F /  16.7 °C 47.5 °F /  8.6 °C 30.05 in /  1017.5 hPa Calm     59 % 0.00 in /  0 mm
16:38 61.9 °F /  16.6 °C 47.4 °F /  8.6 °C 30.05 in /  1017.5 hPa Calm     59 % 0.00 in /  0 mm
16:43 61.7 °F /  16.5 °C 47.7 °F /  8.7 °C 30.04 in /  1017.2 hPa Calm     60 % 0.00 in /  0 mm
16:45 61.6 °F /  16.4 °C 47.1 °F /  8.4 °C 30.04 in /  1017.2 hPa Calm     59 % 0.00 in /  0 mm
16:49 61.7 °F /  16.5 °C 47.2 °F /  8.4 °C 30.04 in /  1017.2 hPa Calm     59 % 0.00 in /  0 mm
16:54 61.9 °F /  16.6 °C 47.4 °F /  8.6 °C 30.04 in /  1017.2 hPa Calm     59 % 0.00 in /  0 mm
16:55 61.8 °F /  16.6 °C 47.3 °F /  8.5 °C 30.04 in /  1017.2 hPa Calm     59 % 0.00 in /  0 mm
17:00 61.5 °F /  16.4 °C 47.9 °F /  8.8 °C 30.04 in /  1017.2 hPa Calm     61 % 0.00 in /  0 mm
17:05 61.0 °F /  16.1 °C 47.9 °F /  8.8 °C 30.04 in /  1017.2 hPa Calm     62 % 0.00 in /  0 mm
17:10 60.4 °F /  15.8 °C 47.7 °F /  8.7 °C 30.05 in /  1017.5 hPa Calm     63 % 0.00 in /  0 mm
17:13 60.1 °F /  15.6 °C 47.9 °F /  8.8 °C 30.05 in /  1017.5 hPa Calm     64 % 0.00 in /  0 mm
17:18 59.7 °F /  15.4 °C 47.9 °F /  8.8 °C 30.05 in /  1017.5 hPa Calm     65 % 0.00 in /  0 mm
17:23 59.7 °F /  15.4 °C 47.9 °F /  8.8 °C 30.05 in /  1017.5 hPa Calm     65 % 0.00 in /  0 mm
17:24 59.7 °F /  15.4 °C 47.5 °F /  8.6 °C 30.05 in /  1017.5 hPa Calm     64 % 0.00 in /  0 mm
17:29 59.9 °F /  15.5 °C 47.7 °F /  8.7 °C 30.05 in /  1017.5 hPa Calm     64 % 0.00 in /  0 mm
17:30 60.0 °F /  15.6 °C 47.8 °F /  8.8 °C 30.05 in /  1017.5 hPa Calm     64 % 0.00 in /  0 mm
17:35 59.7 °F /  15.4 °C 48.7 °F /  9.3 °C 30.05 in /  1017.5 hPa Calm     67 % 0.00 in /  0 mm
17:40 59.0 °F /  15 °C 48.4 °F /  9.1 °C 30.04 in /  1017.2 hPa Calm     68 % 0.00 in /  0 mm
17:43 58.7 °F /  14.8 °C 48.2 °F /  9 °C 30.04 in /  1017.2 hPa Calm     68 % 0.00 in /  0 mm
17:45 58.6 °F /  14.8 °C 48.1 °F /  8.9 °C 30.03 in /  1016.8 hPa Calm     68 % 0.00 in /  0 mm
17:50 59.0 °F /  15 °C 47.2 °F /  8.4 °C 30.03 in /  1016.8 hPa Calm     65 % 0.00 in /  0 mm
17:55 59.8 °F /  15.4 °C 46.7 °F /  8.2 °C 30.03 in /  1016.8 hPa WNW 1.2 mph /  1.9 km/h 1.2 mph /  1.9 km/h 62 % 0.00 in /  0 mm
18:00 60.7 °F /  15.9 °C 46.7 °F /  8.2 °C 30.03 in /  1016.8 hPa Calm     60 % 0.00 in /  0 mm
18:05 61.1 °F /  16.2 °C 46.2 °F /  7.9 °C 30.03 in /  1016.8 hPa NW 2.0 mph /  3.2 km/h 2.0 mph /  3.2 km/h 58 % 0.00 in /  0 mm
18:07 61.2 °F /  16.2 °C 47.2 °F /  8.4 °C 30.03 in /  1016.8 hPa NW 3.5 mph /  5.6 km/h 3.5 mph /  5.6 km/h 60 % 0.00 in /  0 mm
18:12 60.6 °F /  15.9 °C 47.1 °F /  8.4 °C 30.04 in /  1017.2 hPa WNW 1.2 mph /  1.9 km/h   61 % 0.00 in /  0 mm
18:13 60.5 °F /  15.8 °C 47.0 °F /  8.3 °C 30.04 in /  1017.2 hPa Calm     61 % 0.00 in /  0 mm
18:18 60.0 °F /  15.6 °C 47.4 °F /  8.6 °C 30.06 in /  1017.8 hPa SE 3.5 mph /  5.6 km/h 3.5 mph /  5.6 km/h 63 % 0.00 in /  0 mm
18:19 59.9 °F /  15.5 °C 47.3 °F /  8.5 °C 30.06 in /  1017.8 hPa SSE 4.0 mph /  6.4 km/h 4.0 mph /  6.4 km/h 63 % 0.00 in /  0 mm
18:21 59.8 °F /  15.4 °C 47.6 °F /  8.7 °C 30.06 in /  1017.8 hPa NNW 3.5 mph /  5.6 km/h 3.5 mph /  5.6 km/h 64 % 0.00 in /  0 mm
18:26 59.7 °F /  15.4 °C 47.5 °F /  8.6 °C 30.06 in /  1017.8 hPa NW 2.3 mph /  3.7 km/h 2.3 mph /  3.7 km/h 64 % 0.00 in /  0 mm
18:28 59.7 °F /  15.4 °C 47.9 °F /  8.8 °C 30.06 in /  1017.8 hPa NW 2.3 mph /  3.7 km/h 2.3 mph /  3.7 km/h 65 % 0.00 in /  0 mm
18:33 59.7 °F /  15.4 °C 47.9 °F /  8.8 °C 30.06 in /  1017.8 hPa West 1.2 mph /  1.9 km/h 1.2 mph /  1.9 km/h 65 % 0.00 in /  0 mm
18:38 59.4 °F /  15.2 °C 48.0 °F /  8.9 °C 30.06 in /  1017.8 hPa Calm     66 % 0.00 in /  0 mm
18:39 59.4 °F /  15.2 °C 48.0 °F /  8.9 °C 30.06 in /  1017.8 hPa West 1.2 mph /  1.9 km/h   66 % 0.00 in /  0 mm
18:44 59.1 °F /  15.1 °C 48.1 °F /  8.9 °C 30.06 in /  1017.8 hPa NNW 1.2 mph /  1.9 km/h 1.2 mph /  1.9 km/h 67 % 0.00 in /  0 mm
18:49 58.9 °F /  14.9 °C 48.0 °F /  8.9 °C 30.06 in /  1017.8 hPa Calm     67 % 0.00 in /  0 mm
18:52 58.8 °F /  14.9 °C 48.3 °F /  9.1 °C 30.06 in /  1017.8 hPa Calm     68 % 0.00 in /  0 mm
18:54 58.7 °F /  14.8 °C 48.2 °F /  9 °C 30.06 in /  1017.8 hPa Calm     68 % 0.00 in /  0 mm
18:57 58.5 °F /  14.7 °C 48.0 °F /  8.9 °C 30.06 in /  1017.8 hPa Calm     68 % 0.00 in /  0 mm
19:02 58.2 °F /  14.6 °C 48.1 °F /  8.9 °C 30.06 in /  1017.8 hPa Calm     69 % 0.00 in /  0 mm
19:04 58.0 °F /  14.4 °C 47.9 °F /  8.8 °C 30.05 in /  1017.5 hPa Calm     69 % 0.00 in /  0 mm
19:09 57.6 °F /  14.2 °C 48.3 °F /  9.1 °C 30.06 in /  1017.8 hPa Calm     71 % 0.00 in /  0 mm
19:10 57.5 °F /  14.2 °C 48.2 °F /  9 °C 30.06 in /  1017.8 hPa Calm   0.1 mph /  0.2 km/h 71 % 0.00 in /  0 mm
19:14 57.0 °F /  13.9 °C 48.1 °F /  8.9 °C 30.05 in /  1017.5 hPa Calm     72 % 0.00 in /  0 mm
19:16 56.8 °F /  13.8 °C 47.9 °F /  8.8 °C 30.05 in /  1017.5 hPa Calm     72 % 0.00 in /  0 mm
19:21 56.4 °F /  13.6 °C 47.9 °F /  8.8 °C 30.05 in /  1017.5 hPa Calm     73 % 0.00 in /  0 mm
19:22 56.3 °F /  13.5 °C 47.8 °F /  8.8 °C 30.05 in /  1017.5 hPa Calm     73 % 0.00 in /  0 mm
19:27 56.0 °F /  13.3 °C 47.8 °F /  8.8 °C 30.05 in /  1017.5 hPa ESE 1.2 mph /  1.9 km/h   74 % 0.00 in /  0 mm
19:29 55.8 °F /  13.2 °C 47.6 °F /  8.7 °C 30.05 in /  1017.5 hPa Calm     74 % 0.00 in /  0 mm
19:31 55.7 °F /  13.2 °C 47.5 °F /  8.6 °C 30.05 in /  1017.5 hPa Calm     74 % 0.00 in /  0 mm
19:35 55.5 °F /  13.1 °C 47.7 °F /  8.7 °C 30.05 in /  1017.5 hPa Calm     75 % 0.00 in /  0 mm
19:40 55.2 °F /  12.9 °C 47.4 °F /  8.6 °C 30.05 in /  1017.5 hPa Calm     75 % 0.00 in /  0 mm
19:45 55.0 °F /  12.8 °C 47.6 °F /  8.7 °C 30.04 in /  1017.2 hPa Calm     76 % 0.00 in /  0 mm
19:46 54.9 °F /  12.7 °C 47.5 °F /  8.6 °C 30.04 in /  1017.2 hPa Calm     76 % 0.00 in /  0 mm
19:51 54.9 °F /  12.7 °C 47.5 °F /  8.6 °C 30.04 in /  1017.2 hPa Calm     76 % 0.00 in /  0 mm
19:52 55.0 °F /  12.8 °C 47.6 °F /  8.7 °C 30.04 in /  1017.2 hPa Calm     76 % 0.00 in /  0 mm
19:54 55.0 °F /  12.8 °C 47.6 °F /  8.7 °C 30.04 in /  1017.2 hPa Calm     76 % 0.00 in /  0 mm
19:58 55.1 °F /  12.8 °C 47.3 °F /  8.5 °C 30.04 in /  1017.2 hPa Calm     75 % 0.00 in /  0 mm
20:03 55.2 °F /  12.9 °C 47.4 °F /  8.6 °C 30.03 in /  1016.8 hPa Calm     75 % 0.00 in /  0 mm
20:06 55.3 °F /  12.9 °C 47.5 °F /  8.6 °C 30.03 in /  1016.8 hPa Calm     75 % 0.00 in /  0 mm
20:11 55.1 °F /  12.8 °C 47.3 °F /  8.5 °C 30.04 in /  1017.2 hPa Calm     75 % 0.00 in /  0 mm
20:13 55.1 °F /  12.8 °C 47.3 °F /  8.5 °C 30.04 in /  1017.2 hPa Calm     75 % 0.00 in /  0 mm
20:14 55.1 °F /  12.8 °C 47.3 °F /  8.5 °C 30.04 in /  1017.2 hPa Calm     75 % 0.00 in /  0 mm
20:15 55.1 °F /  12.8 °C 47.3 °F /  8.5 °C 30.04 in /  1017.2 hPa Calm     75 % 0.00 in /  0 mm
20:16 55.0 °F /  12.8 °C 47.2 °F /  8.4 °C 30.04 in /  1017.2 hPa Calm     75 % 0.00 in /  0 mm
20:17 55.0 °F /  12.8 °C 47.6 °F /  8.7 °C 30.04 in /  1017.2 hPa Calm     76 % 0.00 in /  0 mm
20:18 54.9 °F /  12.7 °C 47.5 °F /  8.6 °C 30.04 in /  1017.2 hPa Calm     76 % 0.00 in /  0 mm
20:19 54.9 °F /  12.7 °C 47.5 °F /  8.6 °C 30.04 in /  1017.2 hPa Calm     76 % 0.00 in /  0 mm
20:25 54.4 °F /  12.4 °C 47.3 °F /  8.5 °C 30.04 in /  1017.2 hPa Calm     77 % 0.00 in /  0 mm
20:30 54.1 °F /  12.3 °C 47.0 °F /  8.3 °C 30.03 in /  1016.8 hPa Calm     77 % 0.00 in /  0 mm
20:31 54.1 °F /  12.3 °C 47.0 °F /  8.3 °C 30.03 in /  1016.8 hPa Calm     77 % 0.00 in /  0 mm
20:36 53.9 °F /  12.2 °C 47.2 °F /  8.4 °C 30.04 in /  1017.2 hPa Calm     78 % 0.00 in /  0 mm
20:39 53.7 °F /  12.1 °C 47.0 °F /  8.3 °C 30.03 in /  1016.8 hPa Calm     78 % 0.00 in /  0 mm
20:40 53.7 °F /  12.1 °C 47.0 °F /  8.3 °C 30.04 in /  1017.2 hPa Calm     78 % 0.00 in /  0 mm
20:44 53.5 °F /  11.9 °C 46.8 °F /  8.2 °C 30.04 in /  1017.2 hPa Calm     78 % 0.00 in /  0 mm
20:45 53.5 °F /  11.9 °C 46.8 °F /  8.2 °C 30.04 in /  1017.2 hPa Calm     78 % 0.00 in /  0 mm
20:50 52.9 °F /  11.6 °C 46.9 °F /  8.3 °C 30.04 in /  1017.2 hPa Calm     80 % 0.00 in /  0 mm
20:51 52.8 °F /  11.6 °C 46.8 °F /  8.2 °C 30.04 in /  1017.2 hPa Calm     80 % 0.00 in /  0 mm
20:54 52.6 °F /  11.4 °C 46.6 °F /  8.1 °C 30.04 in /  1017.2 hPa Calm     80 % 0.00 in /  0 mm
20:58 52.2 °F /  11.2 °C 46.5 °F /  8.1 °C 30.04 in /  1017.2 hPa Calm     81 % 0.00 in /  0 mm
21:02 52.0 °F /  11.1 °C 46.3 °F /  7.9 °C 30.04 in /  1017.2 hPa Calm     81 % 0.00 in /  0 mm
21:07 51.5 °F /  10.8 °C 46.2 °F /  7.9 °C 30.04 in /  1017.2 hPa Calm     82 % 0.00 in /  0 mm
21:09 51.4 °F /  10.8 °C 46.1 °F /  7.8 °C 30.04 in /  1017.2 hPa Calm     82 % 0.00 in /  0 mm
21:14 51.3 °F /  10.7 °C 46.3 °F /  7.9 °C 30.04 in /  1017.2 hPa Calm     83 % 0.00 in /  0 mm
21:15 51.3 °F /  10.7 °C 46.3 °F /  7.9 °C 30.04 in /  1017.2 hPa Calm     83 % 0.00 in /  0 mm
21:16 51.3 °F /  10.7 °C 46.3 °F /  7.9 °C 30.04 in /  1017.2 hPa Calm     83 % 0.00 in /  0 mm
21:21 51.2 °F /  10.7 °C 46.2 °F /  7.9 °C 30.03 in /  1016.8 hPa Calm     83 % 0.00 in /  0 mm
21:26 50.9 °F /  10.5 °C 45.9 °F /  7.7 °C 30.03 in /  1016.8 hPa Calm     83 % 0.00 in /  0 mm
21:29 50.8 °F /  10.4 °C 45.8 °F /  7.7 °C 30.03 in /  1016.8 hPa Calm     83 % 0.00 in /  0 mm
21:30 50.7 °F /  10.4 °C 45.7 °F /  7.6 °C 30.03 in /  1016.8 hPa ESE 1.2 mph /  1.9 km/h 1.2 mph /  1.9 km/h 83 % 0.00 in /  0 mm
21:34 50.5 °F /  10.3 °C 45.8 °F /  7.7 °C 30.03 in /  1016.8 hPa Calm     84 % 0.00 in /  0 mm
21:35 50.4 °F /  10.2 °C 45.7 °F /  7.6 °C 30.03 in /  1016.8 hPa Calm     84 % 0.00 in /  0 mm
21:36 50.4 °F /  10.2 °C 45.7 °F /  7.6 °C 30.03 in /  1016.8 hPa Calm     84 % 0.00 in /  0 mm
21:37 50.4 °F /  10.2 °C 45.7 °F /  7.6 °C 30.04 in /  1017.2 hPa ESE 1.2 mph /  1.9 km/h   84 % 0.00 in /  0 mm
21:38 50.4 °F /  10.2 °C 45.7 °F /  7.6 °C 30.04 in /  1017.2 hPa ESE 1.2 mph /  1.9 km/h 1.2 mph /  1.9 km/h 84 % 0.00 in /  0 mm
21:43 50.1 °F /  10.1 °C 45.5 °F /  7.5 °C 30.04 in /  1017.2 hPa ESE 1.2 mph /  1.9 km/h   84 % 0.00 in /  0 mm
21:47 50.0 °F /  10 °C 45.4 °F /  7.4 °C 30.04 in /  1017.2 hPa Calm     84 % 0.00 in /  0 mm
21:49 49.8 °F /  9.9 °C 45.5 °F /  7.5 °C 30.04 in /  1017.2 hPa Calm     85 % 0.00 in /  0 mm
21:54 49.6 °F /  9.8 °C 45.3 °F /  7.4 °C 30.04 in /  1017.2 hPa SE 1.0 mph /  1.6 km/h 1.0 mph /  1.6 km/h 85 % 0.00 in /  0 mm
21:55 49.6 °F /  9.8 °C 45.3 °F /  7.4 °C 30.04 in /  1017.2 hPa SE 1.2 mph /  1.9 km/h 1.2 mph /  1.9 km/h 85 % 0.00 in /  0 mm
21:58 49.3 °F /  9.6 °C 45.3 °F /  7.4 °C 30.04 in /  1017.2 hPa SE 1.2 mph /  1.9 km/h 1.2 mph /  1.9 km/h 86 % 0.00 in /  0 mm
22:00 49.3 °F /  9.6 °C 45.3 °F /  7.4 °C 30.04 in /  1017.2 hPa SE 2.3 mph /  3.7 km/h 2.3 mph /  3.7 km/h 86 % 0.00 in /  0 mm
22:01 49.2 °F /  9.6 °C 45.2 °F /  7.3 °C 30.04 in /  1017.2 hPa ESE 1.2 mph /  1.9 km/h 1.2 mph /  1.9 km/h 86 % 0.00 in /  0 mm
22:03 49.1 °F /  9.5 °C 45.1 °F /  7.3 °C 30.04 in /  1017.2 hPa SE 1.2 mph /  1.9 km/h   86 % 0.00 in /  0 mm
22:08 48.8 °F /  9.3 °C 45.1 °F /  7.3 °C 30.05 in /  1017.5 hPa SE 1.2 mph /  1.9 km/h 1.2 mph /  1.9 km/h 87 % 0.00 in /  0 mm
22:10 48.8 °F /  9.3 °C 45.1 °F /  7.3 °C 30.05 in /  1017.5 hPa SE 1.2 mph /  1.9 km/h   87 % 0.00 in /  0 mm
22:15 48.8 °F /  9.3 °C 45.1 °F /  7.3 °C 30.06 in /  1017.8 hPa Calm     87 % 0.00 in /  0 mm
22:18 48.8 °F /  9.3 °C 45.1 °F /  7.3 °C 30.06 in /  1017.8 hPa SE 1.2 mph /  1.9 km/h   87 % 0.00 in /  0 mm
22:21 48.7 °F /  9.3 °C 45.0 °F /  7.2 °C 30.05 in /  1017.5 hPa SSE 1.2 mph /  1.9 km/h 1.2 mph /  1.9 km/h 87 % 0.00 in /  0 mm
22:24 48.6 °F /  9.2 °C 44.9 °F /  7.2 °C 30.05 in /  1017.5 hPa SE 1.2 mph /  1.9 km/h 1.2 mph /  1.9 km/h 87 % 0.00 in /  0 mm
22:26 48.5 °F /  9.2 °C 44.8 °F /  7.1 °C 30.05 in /  1017.5 hPa Calm     87 % 0.00 in /  0 mm
22:28 48.4 °F /  9.1 °C 44.7 °F /  7.1 °C 30.05 in /  1017.5 hPa Calm   0.1 mph /  0.2 km/h 87 % 0.00 in /  0 mm
22:33 48.3 °F /  9.1 °C 44.6 °F /  7 °C 30.05 in /  1017.5 hPa Calm     87 % 0.00 in /  0 mm
22:34 48.2 °F /  9 °C 44.5 °F /  6.9 °C 30.05 in /  1017.5 hPa SE 1.2 mph /  1.9 km/h 1.2 mph /  1.9 km/h 87 % 0.00 in /  0 mm
22:38 48.2 °F /  9 °C 44.5 °F /  6.9 °C 30.06 in /  1017.8 hPa SE 1.0 mph /  1.6 km/h   87 % 0.00 in /  0 mm
22:39 48.1 °F /  8.9 °C 44.4 °F /  6.9 °C 30.06 in /  1017.8 hPa SE 1.2 mph /  1.9 km/h   87 % 0.00 in /  0 mm
22:42 48.1 °F /  8.9 °C 44.4 °F /  6.9 °C 30.06 in /  1017.8 hPa Calm     87 % 0.00 in /  0 mm
22:45 48.1 °F /  8.9 °C 44.4 °F /  6.9 °C 30.06 in /  1017.8 hPa Calm     87 % 0.00 in /  0 mm
22:46 48.1 °F /  8.9 °C 44.4 °F /  6.9 °C 30.06 in /  1017.8 hPa Calm     87 % 0.00 in /  0 mm
22:47 48.1 °F /  8.9 °C 44.4 °F /  6.9 °C 30.06 in /  1017.8 hPa Calm     87 % 0.00 in /  0 mm
22:51 48.3 °F /  9.1 °C 44.3 °F /  6.8 °C 30.06 in /  1017.8 hPa Calm     86 % 0.00 in /  0 mm
22:53 48.3 °F /  9.1 °C 44.3 °F /  6.8 °C 30.06 in /  1017.8 hPa SE 1.2 mph /  1.9 km/h   86 % 0.00 in /  0 mm
22:54 48.3 °F /  9.1 °C 44.3 °F /  6.8 °C 30.06 in /  1017.8 hPa Calm     86 % 0.00 in /  0 mm
22:58 48.3 °F /  9.1 °C 44.3 °F /  6.8 °C 30.06 in /  1017.8 hPa Calm     86 % 0.00 in /  0 mm
23:03 48.3 °F /  9.1 °C 44.3 °F /  6.8 °C 30.06 in /  1017.8 hPa ESE 1.2 mph /  1.9 km/h   86 % 0.00 in /  0 mm
23:04 48.3 °F /  9.1 °C 44.3 °F /  6.8 °C 30.06 in /  1017.8 hPa Calm     86 % 0.00 in /  0 mm
23:05 48.3 °F /  9.1 °C 44.3 °F /  6.8 °C 30.06 in /  1017.8 hPa Calm     86 % 0.00 in /  0 mm
23:10 48.3 °F /  9.1 °C 44.6 °F /  7 °C 30.07 in /  1018.2 hPa Calm     87 % 0.00 in /  0 mm
23:13 48.4 °F /  9.1 °C 44.7 °F /  7.1 °C 30.07 in /  1018.2 hPa Calm     87 % 0.00 in /  0 mm
23:15 48.5 °F /  9.2 °C 44.8 °F /  7.1 °C 30.07 in /  1018.2 hPa East 1.2 mph /  1.9 km/h 1.2 mph /  1.9 km/h 87 % 0.00 in /  0 mm
23:16 48.5 °F /  9.2 °C 44.8 °F /  7.1 °C 30.07 in /  1018.2 hPa SE 1.2 mph /  1.9 km/h 1.2 mph /  1.9 km/h 87 % 0.00 in /  0 mm
23:17 48.6 °F /  9.2 °C 44.9 °F /  7.2 °C 30.07 in /  1018.2 hPa SE 1.2 mph /  1.9 km/h 1.2 mph /  1.9 km/h 87 % 0.00 in /  0 mm
23:21 48.8 °F /  9.3 °C 45.1 °F /  7.3 °C 30.07 in /  1018.2 hPa SE 1.2 mph /  1.9 km/h 1.2 mph /  1.9 km/h 87 % 0.00 in /  0 mm
23:29 49.1 °F /  9.5 °C 45.1 °F /  7.3 °C 30.07 in /  1018.2 hPa SE 1.2 mph /  1.9 km/h 1.2 mph /  1.9 km/h 86 % 0.00 in /  0 mm
23:30 49.2 °F /  9.6 °C 45.5 °F /  7.5 °C 30.06 in /  1017.8 hPa SE 1.2 mph /  1.9 km/h 1.2 mph /  1.9 km/h 87 % 0.00 in /  0 mm
23:35 49.6 °F /  9.8 °C 45.6 °F /  7.6 °C 30.06 in /  1017.8 hPa SE 1.2 mph /  1.9 km/h   86 % 0.00 in /  0 mm
23:36 49.7 °F /  9.8 °C 45.7 °F /  7.6 °C 30.06 in /  1017.8 hPa SE 1.2 mph /  1.9 km/h 1.2 mph /  1.9 km/h 86 % 0.00 in /  0 mm
23:39 49.9 °F /  9.9 °C 45.6 °F /  7.6 °C 30.06 in /  1017.8 hPa Calm     85 % 0.00 in /  0 mm
23:41 50.0 °F /  10 °C 45.7 °F /  7.6 °C 30.06 in /  1017.8 hPa SE 1.2 mph /  1.9 km/h 1.2 mph /  1.9 km/h 85 % 0.00 in /  0 mm
23:46 50.0 °F /  10 °C 45.7 °F /  7.6 °C 30.06 in /  1017.8 hPa ESE 1.2 mph /  1.9 km/h 1.2 mph /  1.9 km/h 85 % 0.00 in /  0 mm
23:52 49.9 °F /  9.9 °C 45.3 °F /  7.4 °C 30.05 in /  1017.5 hPa Calm     84 % 0.00 in /  0 mm
23:55 49.9 °F /  9.9 °C 45.3 °F /  7.4 °C 30.05 in /  1017.5 hPa Calm     84 % 0.00 in /  0 mm
23:57 49.8 °F /  9.9 °C 45.2 °F /  7.3 °C 30.05 in /  1017.5 hPa Calm     84 % 0.00 in /  0 mm
Park Place, Exeter, Tulare County, California, USA
Compliments of Weather Underground - 3.25 mb